createdAt,value
2022-12-10T00:00:24.804Z,987.06
2022-12-10T00:01:24.789Z,987.12
2022-12-10T00:02:24.847Z,987.06
2022-12-10T00:03:24.761Z,987.06
2022-12-10T00:04:24.850Z,987.09
2022-12-10T00:05:24.756Z,987.05
2022-12-10T00:06:24.737Z,987.05
2022-12-10T00:07:24.718Z,987.05
2022-12-10T00:08:24.779Z,987.06
2022-12-10T00:09:24.694Z,987.09
2022-12-10T00:10:24.687Z,987.09
2022-12-10T00:11:24.692Z,987.08
2022-12-10T00:12:24.672Z,987.13
2022-12-10T00:13:24.655Z,987.11
2022-12-10T00:14:24.640Z,987.08
2022-12-10T00:15:24.640Z,987.09
2022-12-10T00:16:24.707Z,987.06
2022-12-10T00:17:24.625Z,987.12
2022-12-10T00:18:24.587Z,987.09
2022-12-10T00:19:24.599Z,987.06
2022-12-10T00:20:24.565Z,987.11
2022-12-10T00:21:24.553Z,987.08
2022-12-10T00:22:24.559Z,987.06
2022-12-10T00:23:24.545Z,987.05
2022-12-10T00:24:24.534Z,987.05
2022-12-10T00:25:24.524Z,987.07
2022-12-10T00:26:24.513Z,987.04
2022-12-10T00:27:24.503Z,987.02
2022-12-10T00:28:24.493Z,987.06
2022-12-10T00:29:24.474Z,987.05
2022-12-10T00:30:24.460Z,987.08
2022-12-10T00:31:24.490Z,987.11
2022-12-10T00:32:24.429Z,987.09
2022-12-10T00:33:24.440Z,987.13
2022-12-10T00:34:24.401Z,987.14
2022-12-10T00:35:24.420Z,987.17
2022-12-10T00:36:24.388Z,987.15
2022-12-10T00:37:24.371Z,987.12
2022-12-10T00:38:24.389Z,987.14
2022-12-10T00:39:24.359Z,987.14
2022-12-10T00:40:24.342Z,987.17
2022-12-10T00:41:24.342Z,987.14
2022-12-10T00:42:24.928Z,987.15
2022-12-10T00:43:24.308Z,987.13
2022-12-10T00:44:24.311Z,987.10
2022-12-10T00:45:24.280Z,987.10
2022-12-10T00:46:24.325Z,987.13
2022-12-10T00:47:24.310Z,987.09
2022-12-10T00:48:24.286Z,987.08
2022-12-10T00:49:24.233Z,987.09
2022-12-10T00:50:24.253Z,987.07
2022-12-10T00:51:24.209Z,987.09
2022-12-10T00:52:24.216Z,987.05
2022-12-10T00:53:24.206Z,987.12
2022-12-10T00:54:24.187Z,987.07
2022-12-10T00:55:24.195Z,987.08
2022-12-10T00:56:24.159Z,987.09
2022-12-10T00:57:24.146Z,987.10
2022-12-10T00:58:24.134Z,987.10
2022-12-10T00:59:24.128Z,987.12
2022-12-10T01:00:24.127Z,987.10
2022-12-10T01:01:24.166Z,987.11
2022-12-10T01:02:24.148Z,987.13
2022-12-10T01:03:24.093Z,987.10
2022-12-10T01:04:24.078Z,987.11
2022-12-10T01:05:24.070Z,987.14
2022-12-10T01:06:24.044Z,987.14
2022-12-10T01:07:24.070Z,987.10
2022-12-10T01:08:24.041Z,987.12
2022-12-10T01:09:24.022Z,987.14
2022-12-10T01:10:24.002Z,987.14
2022-12-10T01:11:23.991Z,987.15
2022-12-10T01:12:23.998Z,987.12
2022-12-10T01:13:23.979Z,987.15
2022-12-10T01:14:23.961Z,987.19
2022-12-10T01:15:23.970Z,987.16
2022-12-10T01:16:23.984Z,987.17
2022-12-10T01:17:23.926Z,987.18
2022-12-10T01:18:23.935Z,987.19
2022-12-10T01:19:23.900Z,987.20
2022-12-10T01:20:23.895Z,987.23
2022-12-10T01:21:23.880Z,987.28
2022-12-10T01:22:23.878Z,987.28
2022-12-10T01:23:23.856Z,987.26
2022-12-10T01:24:23.842Z,987.27
2022-12-10T01:25:23.829Z,987.30
2022-12-10T01:26:23.834Z,987.29
2022-12-10T01:27:23.810Z,987.25
2022-12-10T01:28:23.798Z,987.26
2022-12-10T01:29:23.800Z,987.29
2022-12-10T01:30:23.780Z,987.24
2022-12-10T01:31:23.840Z,987.31
2022-12-10T01:32:23.752Z,987.28
2022-12-10T01:33:23.738Z,987.28
2022-12-10T01:34:23.784Z,987.30
2022-12-10T01:35:23.726Z,987.37
2022-12-10T01:36:23.711Z,987.34
2022-12-10T01:37:23.706Z,987.31
2022-12-10T01:38:23.685Z,987.35
2022-12-10T01:39:23.672Z,987.35
2022-12-10T01:40:23.666Z,987.37
2022-12-10T01:41:23.666Z,987.34
2022-12-10T01:42:23.640Z,987.34
2022-12-10T01:43:23.635Z,987.31
2022-12-10T01:44:23.634Z,987.34
2022-12-10T01:45:23.635Z,987.34
2022-12-10T01:46:23.615Z,987.35
2022-12-10T01:47:23.580Z,987.38
2022-12-10T01:48:23.595Z,987.36
2022-12-10T01:49:23.586Z,987.37
2022-12-10T01:50:23.545Z,987.37
2022-12-10T01:51:23.537Z,987.42
2022-12-10T01:52:23.524Z,987.43
2022-12-10T01:53:23.530Z,987.43
2022-12-10T01:54:23.514Z,987.46
2022-12-10T01:55:23.501Z,987.43
2022-12-10T01:56:23.488Z,987.43
2022-12-10T01:57:23.493Z,987.45
2022-12-10T01:58:23.467Z,987.44
2022-12-10T01:59:23.444Z,987.47
2022-12-10T02:00:23.449Z,987.44
2022-12-10T02:01:23.458Z,987.51
2022-12-10T02:02:23.473Z,987.50
2022-12-10T02:03:23.398Z,987.57
2022-12-10T02:04:23.383Z,987.55
2022-12-10T02:05:23.400Z,987.58
2022-12-10T02:06:23.378Z,987.58
2022-12-10T02:07:23.349Z,987.56
2022-12-10T02:08:23.426Z,987.57
2022-12-10T02:09:23.331Z,987.53
2022-12-10T02:10:23.326Z,987.50
2022-12-10T02:11:23.323Z,987.58
2022-12-10T02:12:23.298Z,987.59
2022-12-10T02:13:23.349Z,987.59
2022-12-10T02:14:23.271Z,987.60
2022-12-10T02:15:23.279Z,987.55
2022-12-10T02:16:23.309Z,987.57
2022-12-10T02:17:23.264Z,987.60
2022-12-10T02:18:23.232Z,987.60
2022-12-10T02:19:23.218Z,987.59
2022-12-10T02:20:23.212Z,987.54
2022-12-10T02:21:23.200Z,987.55
2022-12-10T02:22:23.205Z,987.53
2022-12-10T02:23:23.188Z,987.49
2022-12-10T02:24:23.191Z,987.46
2022-12-10T02:25:23.149Z,987.51
2022-12-10T02:26:23.144Z,987.49
2022-12-10T02:27:23.128Z,987.50
2022-12-10T02:28:23.150Z,987.52
2022-12-10T02:29:25.882Z,987.52
2022-12-10T02:30:23.098Z,987.51
2022-12-10T02:31:23.140Z,987.51
2022-12-10T02:32:23.071Z,987.48
2022-12-10T02:33:23.064Z,987.47
2022-12-10T02:34:23.073Z,987.44
2022-12-10T02:35:23.043Z,987.42
2022-12-10T02:36:23.022Z,987.44
2022-12-10T02:37:23.017Z,987.37
2022-12-10T02:38:23.012Z,987.42
2022-12-10T02:39:23.010Z,987.39
2022-12-10T02:40:22.984Z,987.46
2022-12-10T02:41:22.969Z,987.40
2022-12-10T02:42:22.963Z,987.39
2022-12-10T02:43:22.953Z,987.48
2022-12-10T02:44:22.941Z,987.50
2022-12-10T02:45:22.966Z,987.47
2022-12-10T02:46:22.909Z,987.51
2022-12-10T02:47:22.923Z,987.47
2022-12-10T02:48:22.904Z,987.49
2022-12-10T02:49:22.927Z,987.49
2022-12-10T02:50:22.883Z,987.43
2022-12-10T02:51:22.856Z,987.40
2022-12-10T02:52:22.849Z,987.45
2022-12-10T02:53:22.838Z,987.46
2022-12-10T02:54:22.820Z,987.42
2022-12-10T02:55:22.856Z,987.44
2022-12-10T02:56:22.811Z,987.42
2022-12-10T02:57:22.789Z,987.49
2022-12-10T02:58:22.794Z,987.49
2022-12-10T02:59:22.767Z,987.45
2022-12-10T03:00:22.781Z,987.46
2022-12-10T03:01:22.806Z,987.48
2022-12-10T03:02:22.735Z,987.50
2022-12-10T03:03:22.778Z,987.51
2022-12-10T03:04:22.714Z,987.51
2022-12-10T03:05:22.695Z,987.53
2022-12-10T03:06:22.702Z,987.53
2022-12-10T03:07:22.701Z,987.60
2022-12-10T03:08:22.774Z,987.58
2022-12-10T03:09:22.657Z,987.54
2022-12-10T03:10:22.647Z,987.54
2022-12-10T03:11:22.641Z,987.58
2022-12-10T03:12:22.633Z,987.58
2022-12-10T03:13:22.617Z,987.58
2022-12-10T03:14:22.625Z,987.60
2022-12-10T03:15:22.584Z,987.56
2022-12-10T03:16:22.649Z,987.60
2022-12-10T03:17:22.572Z,987.59
2022-12-10T03:18:22.564Z,987.59
2022-12-10T03:19:22.567Z,987.60
2022-12-10T03:20:22.533Z,987.60
2022-12-10T03:21:22.524Z,987.61
2022-12-10T03:22:22.522Z,987.63
2022-12-10T03:23:22.502Z,987.61
2022-12-10T03:24:22.490Z,987.60
2022-12-10T03:25:22.473Z,987.60
2022-12-10T03:26:22.490Z,987.65
2022-12-10T03:27:22.467Z,987.65
2022-12-10T03:28:22.458Z,987.66
2022-12-10T03:29:22.432Z,987.71
2022-12-10T03:30:22.464Z,987.75
2022-12-10T03:31:22.410Z,987.74
2022-12-10T03:32:22.394Z,987.77
2022-12-10T03:33:22.408Z,987.73
2022-12-10T03:34:22.389Z,987.72
2022-12-10T03:35:22.362Z,987.75
2022-12-10T03:36:22.352Z,987.75
2022-12-10T03:37:22.345Z,987.75
2022-12-10T03:38:22.339Z,987.76
2022-12-10T03:39:22.326Z,987.78
2022-12-10T03:40:22.314Z,987.79
2022-12-10T03:41:22.304Z,987.80
2022-12-10T03:42:22.294Z,987.85
2022-12-10T03:43:22.279Z,987.83
2022-12-10T03:44:22.279Z,987.86
2022-12-10T03:45:22.324Z,987.84
2022-12-10T03:46:22.298Z,987.83
2022-12-10T03:47:22.222Z,987.83
2022-12-10T03:48:22.226Z,987.86
2022-12-10T03:49:22.214Z,987.83
2022-12-10T03:50:22.206Z,987.83
2022-12-10T03:51:22.194Z,987.81
2022-12-10T03:52:22.210Z,987.80
2022-12-10T03:53:22.171Z,987.82
2022-12-10T03:54:22.145Z,987.76
2022-12-10T03:55:22.139Z,987.78
2022-12-10T03:56:22.134Z,987.75
2022-12-10T03:57:22.123Z,987.77
2022-12-10T03:58:22.129Z,987.72
2022-12-10T03:59:22.099Z,987.75
2022-12-10T04:00:22.075Z,987.74
2022-12-10T04:01:22.106Z,987.77
2022-12-10T04:02:22.076Z,987.71
2022-12-10T04:03:22.044Z,987.76
2022-12-10T04:04:22.061Z,987.77
2022-12-10T04:05:22.041Z,987.72
2022-12-10T04:06:22.036Z,987.73
2022-12-10T04:07:22.015Z,987.74
2022-12-10T04:08:22.056Z,987.74
2022-12-10T04:09:21.974Z,987.75
2022-12-10T04:10:21.981Z,987.73
2022-12-10T04:11:21.955Z,987.72
2022-12-10T04:12:21.965Z,987.74
2022-12-10T04:13:21.962Z,987.74
2022-12-10T04:14:21.920Z,987.74
2022-12-10T04:15:21.915Z,987.72
2022-12-10T04:16:21.950Z,987.72
2022-12-10T04:17:21.887Z,987.68
2022-12-10T04:18:21.878Z,987.71
2022-12-10T04:19:21.871Z,987.72
2022-12-10T04:20:21.853Z,987.73
2022-12-10T04:21:21.857Z,987.72
2022-12-10T04:22:21.850Z,987.72
2022-12-10T04:23:21.821Z,987.75
2022-12-10T04:24:21.838Z,987.75
2022-12-10T04:25:21.813Z,987.77
2022-12-10T04:26:21.799Z,987.74
2022-12-10T04:27:21.780Z,987.77
2022-12-10T04:28:21.773Z,987.78
2022-12-10T04:29:21.753Z,987.77
2022-12-10T04:30:21.750Z,987.78
2022-12-10T04:31:21.777Z,987.83
2022-12-10T04:32:21.772Z,987.83
2022-12-10T04:33:21.716Z,987.83
2022-12-10T04:34:21.695Z,987.85
2022-12-10T04:35:21.695Z,987.82
2022-12-10T04:36:21.684Z,987.80
2022-12-10T04:37:21.665Z,987.84
2022-12-10T04:38:21.657Z,987.82
2022-12-10T04:39:21.656Z,987.83
2022-12-10T04:40:21.641Z,987.88
2022-12-10T04:41:21.649Z,987.87
2022-12-10T04:42:21.613Z,987.84
2022-12-10T04:43:21.595Z,987.78
2022-12-10T04:44:21.589Z,987.85
2022-12-10T04:45:21.568Z,987.83
2022-12-10T04:46:21.593Z,987.81
2022-12-10T04:47:21.607Z,987.84
2022-12-10T04:48:21.551Z,987.84
2022-12-10T04:49:21.529Z,987.82
2022-12-10T04:50:21.517Z,987.83
2022-12-10T04:51:21.510Z,987.83
2022-12-10T04:52:21.515Z,987.85
2022-12-10T04:53:21.503Z,987.86
2022-12-10T04:54:21.472Z,987.82
2022-12-10T04:55:21.455Z,987.81
2022-12-10T04:56:21.456Z,987.84
2022-12-10T04:57:21.443Z,987.82
2022-12-10T04:58:21.419Z,987.84
2022-12-10T04:59:21.426Z,987.82
2022-12-10T05:00:21.445Z,987.81
2022-12-10T05:01:21.427Z,987.79
2022-12-10T05:02:21.399Z,987.82
2022-12-10T05:03:21.374Z,987.78
2022-12-10T05:04:21.417Z,987.80
2022-12-10T05:05:21.357Z,987.79
2022-12-10T05:06:21.340Z,987.79
2022-12-10T05:07:21.337Z,987.83
2022-12-10T05:08:21.357Z,987.81
2022-12-10T05:09:21.296Z,987.80
2022-12-10T05:10:21.324Z,987.80
2022-12-10T05:11:21.280Z,987.86
2022-12-10T05:12:21.271Z,987.86
2022-12-10T05:13:21.267Z,987.88
2022-12-10T05:14:21.263Z,987.90
2022-12-10T05:15:21.251Z,987.87
2022-12-10T05:16:21.270Z,987.90
2022-12-10T05:17:21.230Z,987.85
2022-12-10T05:18:21.204Z,987.85
2022-12-10T05:19:21.207Z,987.83
2022-12-10T05:20:21.184Z,987.85
2022-12-10T05:21:21.182Z,987.86
2022-12-10T05:22:21.201Z,987.86
2022-12-10T05:23:21.161Z,987.82
2022-12-10T05:24:21.141Z,987.81
2022-12-10T05:25:21.131Z,987.82
2022-12-10T05:26:21.113Z,987.79
2022-12-10T05:27:21.114Z,987.79
2022-12-10T05:28:21.104Z,987.81
2022-12-10T05:29:21.071Z,987.78
2022-12-10T05:30:21.108Z,987.79
2022-12-10T05:31:21.107Z,987.79
2022-12-10T05:32:21.066Z,987.82
2022-12-10T05:33:21.055Z,987.80
2022-12-10T05:34:21.036Z,987.81
2022-12-10T05:35:21.025Z,987.83
2022-12-10T05:36:21.000Z,987.85
2022-12-10T05:37:20.987Z,987.82
2022-12-10T05:38:20.976Z,987.86
2022-12-10T05:39:20.983Z,987.88
2022-12-10T05:40:20.951Z,987.88
2022-12-10T05:41:20.952Z,987.91
2022-12-10T05:42:20.956Z,987.89
2022-12-10T05:43:20.923Z,987.91
2022-12-10T05:44:20.914Z,987.89
2022-12-10T05:45:20.892Z,987.92
2022-12-10T05:46:20.968Z,987.92
2022-12-10T05:47:20.886Z,987.92
2022-12-10T05:48:20.871Z,987.90
2022-12-10T05:49:20.864Z,987.92
2022-12-10T05:50:20.846Z,987.88
2022-12-10T05:51:20.827Z,987.92
2022-12-10T05:52:20.814Z,987.87
2022-12-10T05:53:20.831Z,987.89
2022-12-10T05:54:20.787Z,987.91
2022-12-10T05:55:20.786Z,987.95
2022-12-10T05:56:20.781Z,987.98
2022-12-10T05:57:20.771Z,987.95
2022-12-10T05:58:20.770Z,987.95
2022-12-10T05:59:20.788Z,987.94
2022-12-10T06:00:20.735Z,987.91
2022-12-10T06:01:20.770Z,987.94
2022-12-10T06:02:20.709Z,987.99
2022-12-10T06:03:20.687Z,987.95
2022-12-10T06:04:20.729Z,988.00
2022-12-10T06:05:20.670Z,987.99
2022-12-10T06:06:20.664Z,988.02
2022-12-10T06:07:20.651Z,988.02
2022-12-10T06:08:20.669Z,988.02
2022-12-10T06:09:20.642Z,988.01
2022-12-10T06:10:20.624Z,988.05
2022-12-10T06:11:20.607Z,988.01
2022-12-10T06:12:20.597Z,987.99
2022-12-10T06:13:20.597Z,987.97
2022-12-10T06:14:20.583Z,988.00
2022-12-10T06:15:20.570Z,987.97
2022-12-10T06:16:20.603Z,988.00
2022-12-10T06:17:20.533Z,987.98
2022-12-10T06:18:20.560Z,987.97
2022-12-10T06:19:20.513Z,987.96
2022-12-10T06:20:20.496Z,987.95
2022-12-10T06:21:20.498Z,987.96
2022-12-10T06:22:20.478Z,987.93
2022-12-10T06:23:20.464Z,987.96
2022-12-10T06:24:20.469Z,987.96
2022-12-10T06:25:20.444Z,987.98
2022-12-10T06:26:20.433Z,988.00
2022-12-10T06:27:20.429Z,987.98
2022-12-10T06:28:20.407Z,987.99
2022-12-10T06:29:20.423Z,987.99
2022-12-10T06:30:20.384Z,988.00
2022-12-10T06:31:20.483Z,988.01
2022-12-10T06:32:20.364Z,987.98
2022-12-10T06:33:20.350Z,988.05
2022-12-10T06:34:20.352Z,988.00
2022-12-10T06:35:20.329Z,988.00
2022-12-10T06:36:20.329Z,988.03
2022-12-10T06:37:20.307Z,988.05
2022-12-10T06:38:20.291Z,988.09
2022-12-10T06:39:20.294Z,988.07
2022-12-10T06:40:20.302Z,988.12
2022-12-10T06:41:20.281Z,988.14
2022-12-10T06:42:20.257Z,988.14
2022-12-10T06:43:20.233Z,988.14
2022-12-10T06:44:20.222Z,988.16
2022-12-10T06:45:20.220Z,988.19
2022-12-10T06:46:20.279Z,988.24
2022-12-10T06:47:20.192Z,988.19
2022-12-10T06:48:20.180Z,988.18
2022-12-10T06:49:20.196Z,988.18
2022-12-10T06:50:20.173Z,988.16
2022-12-10T06:51:20.149Z,988.13
2022-12-10T06:52:20.136Z,988.16
2022-12-10T06:53:20.137Z,988.18
2022-12-10T06:54:20.113Z,988.19
2022-12-10T06:55:20.118Z,988.19
2022-12-10T06:56:20.093Z,988.20
2022-12-10T06:57:20.101Z,988.21
2022-12-10T06:58:20.075Z,988.22
2022-12-10T06:59:20.063Z,988.24
2022-12-10T07:00:22.191Z,988.28
2022-12-10T07:01:20.105Z,988.27
2022-12-10T07:02:20.198Z,988.29
2022-12-10T07:03:20.017Z,988.33
2022-12-10T07:04:19.996Z,988.32
2022-12-10T07:05:19.990Z,988.34
2022-12-10T07:06:20.001Z,988.35
2022-12-10T07:07:19.968Z,988.38
2022-12-10T07:08:20.066Z,988.38
2022-12-10T07:09:19.947Z,988.37
2022-12-10T07:10:19.933Z,988.40
2022-12-10T07:11:19.930Z,988.41
2022-12-10T07:12:19.923Z,988.44
2022-12-10T07:13:19.900Z,988.45
2022-12-10T07:14:19.888Z,988.47
2022-12-10T07:15:19.888Z,988.44
2022-12-10T07:16:19.920Z,988.49
2022-12-10T07:17:19.854Z,988.46
2022-12-10T07:18:19.860Z,988.50
2022-12-10T07:19:19.855Z,988.48
2022-12-10T07:20:19.822Z,988.49
2022-12-10T07:21:19.818Z,988.48
2022-12-10T07:22:19.798Z,988.47
2022-12-10T07:23:19.784Z,988.52
2022-12-10T07:24:19.922Z,988.56
2022-12-10T07:25:19.777Z,988.60
2022-12-10T07:26:19.773Z,988.63
2022-12-10T07:27:19.873Z,988.60
2022-12-10T07:28:19.724Z,988.58
2022-12-10T07:29:19.729Z,988.62
2022-12-10T07:30:19.703Z,988.63
2022-12-10T07:31:19.740Z,988.65
2022-12-10T07:32:19.705Z,988.64
2022-12-10T07:33:19.681Z,988.69
2022-12-10T07:34:19.668Z,988.67
2022-12-10T07:35:19.656Z,988.69
2022-12-10T07:36:19.651Z,988.69
2022-12-10T07:37:19.628Z,988.67
2022-12-10T07:38:19.652Z,988.72
2022-12-10T07:39:19.735Z,988.71
2022-12-10T07:40:19.835Z,988.69
2022-12-10T07:41:19.940Z,988.72
2022-12-10T07:42:19.570Z,988.67
2022-12-10T07:43:19.563Z,988.71
2022-12-10T07:44:19.551Z,988.71
2022-12-10T07:45:19.553Z,988.68
2022-12-10T07:46:19.629Z,988.67
2022-12-10T07:47:19.514Z,988.71
2022-12-10T07:48:19.539Z,988.72
2022-12-10T07:49:19.503Z,988.76
2022-12-10T07:50:19.476Z,988.76
2022-12-10T07:51:19.479Z,988.79
2022-12-10T07:52:19.516Z,988.83
2022-12-10T07:53:19.501Z,988.80
2022-12-10T07:54:19.441Z,988.86
2022-12-10T07:55:19.423Z,988.86
2022-12-10T07:56:19.425Z,988.88
2022-12-10T07:57:19.416Z,988.86
2022-12-10T07:58:19.395Z,988.92
2022-12-10T07:59:19.410Z,988.94
2022-12-10T08:00:19.401Z,988.98
2022-12-10T08:01:19.510Z,988.92
2022-12-10T08:02:19.365Z,988.92
2022-12-10T08:03:19.389Z,988.91
2022-12-10T08:04:19.330Z,988.91
2022-12-10T08:05:19.327Z,988.90
2022-12-10T08:06:19.308Z,988.91
2022-12-10T08:07:19.294Z,988.95
2022-12-10T08:08:19.303Z,988.91
2022-12-10T08:09:19.274Z,988.93
2022-12-10T08:10:19.271Z,988.97
2022-12-10T08:11:19.258Z,988.95
2022-12-10T08:12:19.247Z,988.98
2022-12-10T08:13:19.240Z,989.03
2022-12-10T08:14:19.213Z,989.00
2022-12-10T08:15:19.198Z,989.03
2022-12-10T08:16:19.282Z,989.01
2022-12-10T08:17:19.194Z,989.05
2022-12-10T08:18:19.165Z,989.03
2022-12-10T08:19:22.824Z,989.05
2022-12-10T08:20:19.160Z,989.07
2022-12-10T08:21:19.156Z,989.11
2022-12-10T08:22:19.134Z,989.09
2022-12-10T08:23:19.116Z,989.12
2022-12-10T08:24:19.096Z,989.13
2022-12-10T08:25:19.092Z,989.17
2022-12-10T08:26:19.088Z,989.14
2022-12-10T08:27:19.188Z,989.13
2022-12-10T08:28:19.059Z,989.13
2022-12-10T08:29:19.041Z,989.11
2022-12-10T08:30:19.052Z,989.11
2022-12-10T08:31:19.086Z,989.15
2022-12-10T08:32:19.038Z,989.16
2022-12-10T08:33:19.007Z,989.17
2022-12-10T08:34:18.989Z,989.18
2022-12-10T08:35:18.988Z,989.18
2022-12-10T08:36:18.964Z,989.19
2022-12-10T08:37:18.961Z,989.18
2022-12-10T08:38:18.957Z,989.21
2022-12-10T08:39:18.971Z,989.21
2022-12-10T08:40:18.915Z,989.21
2022-12-10T08:41:18.902Z,989.21
2022-12-10T08:42:18.912Z,989.20
2022-12-10T08:43:18.915Z,989.26
2022-12-10T08:44:18.873Z,989.28
2022-12-10T08:45:18.860Z,989.27
2022-12-10T08:46:18.864Z,989.30
2022-12-10T08:47:18.849Z,989.31
2022-12-10T08:48:18.844Z,989.31
2022-12-10T08:49:18.838Z,989.31
2022-12-10T08:50:18.815Z,989.34
2022-12-10T08:51:18.796Z,989.35
2022-12-10T08:52:18.789Z,989.39
2022-12-10T08:53:18.799Z,989.36
2022-12-10T08:54:18.759Z,989.42
2022-12-10T08:55:18.758Z,989.42
2022-12-10T08:56:18.750Z,989.43
2022-12-10T08:57:18.733Z,989.39
2022-12-10T08:58:18.728Z,989.41
2022-12-10T08:59:18.732Z,989.42
2022-12-10T09:00:18.723Z,989.41
2022-12-10T09:01:18.737Z,989.42
2022-12-10T09:02:18.751Z,989.37
2022-12-10T09:03:18.658Z,989.40
2022-12-10T09:04:18.661Z,989.38
2022-12-10T09:05:18.655Z,989.43
2022-12-10T09:06:18.659Z,989.42
2022-12-10T09:07:18.613Z,989.47
2022-12-10T09:08:18.715Z,989.45
2022-12-10T09:09:18.629Z,989.48
2022-12-10T09:10:18.604Z,989.48
2022-12-10T09:11:18.581Z,989.49
2022-12-10T09:12:18.575Z,989.50
2022-12-10T09:13:18.553Z,989.54
2022-12-10T09:14:18.548Z,989.54
2022-12-10T09:15:18.527Z,989.49
2022-12-10T09:16:18.566Z,989.56
2022-12-10T09:17:18.538Z,989.53
2022-12-10T09:18:18.528Z,989.51
2022-12-10T09:19:20.464Z,989.50
2022-12-10T09:20:18.489Z,989.55
2022-12-10T09:21:18.520Z,989.52
2022-12-10T09:22:18.546Z,989.55
2022-12-10T09:23:18.451Z,989.54
2022-12-10T09:24:18.429Z,989.52
2022-12-10T09:25:18.413Z,989.52
2022-12-10T09:26:18.408Z,989.53
2022-12-10T09:27:18.396Z,989.56
2022-12-10T09:28:18.437Z,989.56
2022-12-10T09:29:18.382Z,989.59
2022-12-10T09:30:18.361Z,989.54
2022-12-10T09:31:20.279Z,989.52
2022-12-10T09:32:18.359Z,989.53
2022-12-10T09:33:18.349Z,989.52
2022-12-10T09:34:18.317Z,989.52
2022-12-10T09:35:18.308Z,989.58
2022-12-10T09:36:18.311Z,989.56
2022-12-10T09:37:18.337Z,989.56
2022-12-10T09:38:18.284Z,989.55
2022-12-10T09:39:18.253Z,989.50
2022-12-10T09:40:18.266Z,989.52
2022-12-10T09:41:18.234Z,989.55
2022-12-10T09:42:18.237Z,989.55
2022-12-10T09:43:19.281Z,989.60
2022-12-10T09:44:18.251Z,989.57
2022-12-10T09:45:18.214Z,989.58
2022-12-10T09:46:18.249Z,989.55
2022-12-10T09:47:18.228Z,989.59
2022-12-10T09:48:18.176Z,989.59
2022-12-10T09:49:18.154Z,989.56
2022-12-10T09:50:18.534Z,989.60
2022-12-10T09:51:18.127Z,989.61
2022-12-10T09:52:18.119Z,989.67
2022-12-10T09:53:18.122Z,989.65
2022-12-10T09:54:18.101Z,989.66
2022-12-10T09:55:18.082Z,989.62
2022-12-10T09:56:18.090Z,989.67
2022-12-10T09:57:18.059Z,989.67
2022-12-10T09:58:18.045Z,989.67
2022-12-10T09:59:18.032Z,989.68
2022-12-10T10:00:18.048Z,989.69
2022-12-10T10:01:18.083Z,989.66
2022-12-10T10:02:18.064Z,989.70
2022-12-10T10:03:17.988Z,989.66
2022-12-10T10:04:17.994Z,989.67
2022-12-10T10:05:17.999Z,989.72
2022-12-10T10:06:17.953Z,989.68
2022-12-10T10:07:17.947Z,989.69
2022-12-10T10:08:18.021Z,989.69
2022-12-10T10:09:17.922Z,989.69
2022-12-10T10:10:17.912Z,989.66
2022-12-10T10:11:17.935Z,989.69
2022-12-10T10:12:17.943Z,989.68
2022-12-10T10:13:17.879Z,989.65
2022-12-10T10:14:17.886Z,989.62
2022-12-10T10:15:17.853Z,989.65
2022-12-10T10:16:17.889Z,989.58
2022-12-10T10:17:17.839Z,989.63
2022-12-10T10:18:17.825Z,989.57
2022-12-10T10:19:17.835Z,989.57
2022-12-10T10:20:17.826Z,989.57
2022-12-10T10:21:17.792Z,989.54
2022-12-10T10:22:17.795Z,989.56
2022-12-10T10:23:17.758Z,989.57
2022-12-10T10:24:17.775Z,989.58
2022-12-10T10:25:17.747Z,989.58
2022-12-10T10:26:17.741Z,989.58
2022-12-10T10:27:17.729Z,989.59
2022-12-10T10:28:17.718Z,989.60
2022-12-10T10:29:17.694Z,989.55
2022-12-10T10:30:17.687Z,989.56
2022-12-10T10:31:17.722Z,989.60
2022-12-10T10:32:17.671Z,989.58
2022-12-10T10:33:17.649Z,989.60
2022-12-10T10:34:17.641Z,989.57
2022-12-10T10:35:17.649Z,989.55
2022-12-10T10:36:18.154Z,989.58
2022-12-10T10:37:17.644Z,989.58
2022-12-10T10:38:17.602Z,989.60
2022-12-10T10:39:17.594Z,989.62
2022-12-10T10:40:17.566Z,989.58
2022-12-10T10:41:17.562Z,989.67
2022-12-10T10:42:17.544Z,989.62
2022-12-10T10:43:17.558Z,989.65
2022-12-10T10:44:17.535Z,989.69
2022-12-10T10:45:17.528Z,989.66
2022-12-10T10:46:17.601Z,989.65
2022-12-10T10:47:17.502Z,989.66
2022-12-10T10:48:17.478Z,989.67
2022-12-10T10:49:17.490Z,989.62
2022-12-10T10:50:17.503Z,989.62
2022-12-10T10:51:17.464Z,989.61
2022-12-10T10:52:17.446Z,989.61
2022-12-10T10:53:17.441Z,989.61
2022-12-10T10:54:17.409Z,989.60
2022-12-10T10:55:17.441Z,989.59
2022-12-10T10:56:17.397Z,989.60
2022-12-10T10:57:17.391Z,989.58
2022-12-10T10:58:17.379Z,989.62
2022-12-10T10:59:17.364Z,989.62
2022-12-10T11:00:17.346Z,989.64
2022-12-10T11:01:17.385Z,989.66
2022-12-10T11:02:17.358Z,989.64
2022-12-10T11:03:17.315Z,989.67
2022-12-10T11:04:17.311Z,989.64
2022-12-10T11:05:17.294Z,989.68
2022-12-10T11:06:17.455Z,989.65
2022-12-10T11:07:17.261Z,989.69
2022-12-10T11:08:17.341Z,989.65
2022-12-10T11:09:17.270Z,989.61
2022-12-10T11:10:17.254Z,989.64
2022-12-10T11:11:17.241Z,989.66
2022-12-10T11:12:17.210Z,989.66
2022-12-10T11:13:17.200Z,989.65
2022-12-10T11:14:17.187Z,989.67
2022-12-10T11:15:17.175Z,989.62
2022-12-10T11:16:17.219Z,989.61
2022-12-10T11:17:17.166Z,989.61
2022-12-10T11:18:17.165Z,989.61
2022-12-10T11:19:17.136Z,989.63
2022-12-10T11:20:17.133Z,989.60
2022-12-10T11:21:17.102Z,989.67
2022-12-10T11:22:17.100Z,989.64
2022-12-10T11:23:17.094Z,989.65
2022-12-10T11:24:17.070Z,989.64
2022-12-10T11:25:17.065Z,989.61
2022-12-10T11:26:17.054Z,989.56
2022-12-10T11:27:17.052Z,989.57
2022-12-10T11:28:17.025Z,989.56
2022-12-10T11:29:17.019Z,989.58
2022-12-10T11:30:17.009Z,989.58
2022-12-10T11:31:17.051Z,989.60
2022-12-10T11:32:16.997Z,989.55
2022-12-10T11:33:16.980Z,989.59
2022-12-10T11:34:16.955Z,989.53
2022-12-10T11:35:16.963Z,989.52
2022-12-10T11:36:16.939Z,989.52
2022-12-10T11:37:16.945Z,989.53
2022-12-10T11:38:16.913Z,989.57
2022-12-10T11:39:16.906Z,989.57
2022-12-10T11:40:16.887Z,989.54
2022-12-10T11:41:16.900Z,989.53
2022-12-10T11:42:16.871Z,989.53
2022-12-10T11:43:20.171Z,989.53
2022-12-10T11:44:16.857Z,989.54
2022-12-10T11:45:16.853Z,989.55
2022-12-10T11:46:16.922Z,989.56
2022-12-10T11:47:16.815Z,989.57
2022-12-10T11:48:16.825Z,989.55
2022-12-10T11:49:16.786Z,989.55
2022-12-10T11:50:16.785Z,989.58
2022-12-10T11:51:16.764Z,989.60
2022-12-10T11:52:16.758Z,989.61
2022-12-10T11:53:16.761Z,989.64
2022-12-10T11:54:16.751Z,989.64
2022-12-10T11:55:16.730Z,989.64
2022-12-10T11:56:16.709Z,989.62
2022-12-10T11:57:16.703Z,989.61
2022-12-10T11:58:16.694Z,989.63
2022-12-10T11:59:16.685Z,989.61
2022-12-10T12:00:16.919Z,989.57
2022-12-10T12:01:16.687Z,989.57
2022-12-10T12:02:16.680Z,989.59
2022-12-10T12:03:16.696Z,989.60
2022-12-10T12:04:16.640Z,989.60
2022-12-10T12:05:16.608Z,989.62
2022-12-10T12:06:16.593Z,989.63
2022-12-10T12:07:16.600Z,989.61
2022-12-10T12:08:16.608Z,989.63
2022-12-10T12:09:16.589Z,989.62
2022-12-10T12:10:16.551Z,989.64
2022-12-10T12:11:16.540Z,989.62
2022-12-10T12:12:16.537Z,989.66
2022-12-10T12:13:16.541Z,989.68
2022-12-10T12:14:16.521Z,989.64
2022-12-10T12:15:16.515Z,989.66
2022-12-10T12:16:16.535Z,989.68
2022-12-10T12:17:16.483Z,989.68
2022-12-10T12:18:21.654Z,989.67
2022-12-10T12:19:16.460Z,989.67
2022-12-10T12:20:16.444Z,989.68
2022-12-10T12:21:16.470Z,989.65
2022-12-10T12:22:16.421Z,989.68
2022-12-10T12:23:16.412Z,989.70
2022-12-10T12:24:16.413Z,989.68
2022-12-10T12:25:16.386Z,989.68
2022-12-10T12:26:16.391Z,989.60
2022-12-10T12:27:16.363Z,989.67
2022-12-10T12:28:16.354Z,989.65